sensor_id;sensor_type;location;lat;lon;timestamp;pressure;altitude;pressure_sealevel;temperature;humidity
64551;BME280;50945;44.472;-123.352;2023-06-22T00:02:18;100529.75;;;26.77;31.35
64551;BME280;50945;44.472;-123.352;2023-06-22T00:04:44;100525.53;;;26.79;31.61
64551;BME280;50945;44.472;-123.352;2023-06-22T00:07:11;100528.59;;;26.83;31.37
64551;BME280;50945;44.472;-123.352;2023-06-22T00:09:37;100521.63;;;26.75;31.32
64551;BME280;50945;44.472;-123.352;2023-06-22T00:12:03;100525.63;;;26.64;31.51
64551;BME280;50945;44.472;-123.352;2023-06-22T00:14:30;100520.00;;;26.64;31.24
64551;BME280;50945;44.472;-123.352;2023-06-22T00:16:56;100516.63;;;26.67;31.14
64551;BME280;50945;44.472;-123.352;2023-06-22T00:19:24;100514.69;;;26.62;30.87
64551;BME280;50945;44.472;-123.352;2023-06-22T00:21:51;100502.69;;;26.46;30.92
64551;BME280;50945;44.472;-123.352;2023-06-22T00:24:20;100509.47;;;26.35;30.82
64551;BME280;50945;44.472;-123.352;2023-06-22T00:26:48;100503.91;;;26.25;30.85
64551;BME280;50945;44.472;-123.352;2023-06-22T00:29:14;100505.63;;;26.10;31.02
64551;BME280;50945;44.472;-123.352;2023-06-22T00:31:41;100505.38;;;25.91;31.29
64551;BME280;50945;44.472;-123.352;2023-06-22T00:34:08;100488.03;;;25.74;31.07
64551;BME280;50945;44.472;-123.352;2023-06-22T00:36:35;100490.88;;;25.64;31.49
64551;BME280;50945;44.472;-123.352;2023-06-22T00:39:02;100487.22;;;25.58;31.50
64551;BME280;50945;44.472;-123.352;2023-06-22T00:41:28;100474.38;;;25.47;31.34
64551;BME280;50945;44.472;-123.352;2023-06-22T00:43:55;100484.47;;;25.37;31.68
64551;BME280;50945;44.472;-123.352;2023-06-22T00:46:21;100486.16;;;25.28;31.72
64551;BME280;50945;44.472;-123.352;2023-06-22T00:48:49;100476.03;;;25.17;31.69
64551;BME280;50945;44.472;-123.352;2023-06-22T00:51:16;100477.16;;;25.11;31.56
64551;BME280;50945;44.472;-123.352;2023-06-22T00:53:42;100473.81;;;24.98;31.46
64551;BME280;50945;44.472;-123.352;2023-06-22T00:56:10;100479.66;;;24.92;31.75
64551;BME280;50945;44.472;-123.352;2023-06-22T00:58:38;100478.53;;;24.82;31.45
64551;BME280;50945;44.472;-123.352;2023-06-22T01:01:07;100473.75;;;24.78;31.71
64551;BME280;50945;44.472;-123.352;2023-06-22T01:03:33;100469.84;;;24.69;31.64
64551;BME280;50945;44.472;-123.352;2023-06-22T01:06:13;100473.75;;;24.57;31.31
64551;BME280;50945;44.472;-123.352;2023-06-22T01:08:57;100465.84;;;24.49;30.80
64551;BME280;50945;44.472;-123.352;2023-06-22T01:11:36;100455.50;;;24.49;31.82
64551;BME280;50945;44.472;-123.352;2023-06-22T01:14:10;100466.94;;;24.48;32.18
64551;BME280;50945;44.472;-123.352;2023-06-22T01:16:41;100472.25;;;24.39;32.13
64551;BME280;50945;44.472;-123.352;2023-06-22T01:19:20;100464.41;;;24.31;32.32
64551;BME280;50945;44.472;-123.352;2023-06-22T01:21:53;100458.22;;;24.24;32.25
64551;BME280;50945;44.472;-123.352;2023-06-22T01:24:44;100470.47;;;24.18;31.34
64551;BME280;50945;44.472;-123.352;2023-06-22T01:30:13;100456.72;;;24.01;32.49
64551;BME280;50945;44.472;-123.352;2023-06-22T01:32:41;100458.66;;;23.95;32.59
64551;BME280;50945;44.472;-123.352;2023-06-22T01:35:09;100457.50;;;23.91;32.61
64551;BME280;50945;44.472;-123.352;2023-06-22T01:37:37;100454.16;;;23.89;32.59
64551;BME280;50945;44.472;-123.352;2023-06-22T01:40:05;100451.34;;;23.84;32.56
64551;BME280;50945;44.472;-123.352;2023-06-22T01:42:33;100451.91;;;23.81;32.68
64551;BME280;50945;44.472;-123.352;2023-06-22T01:45:00;100451.84;;;23.76;32.80
64551;BME280;50945;44.472;-123.352;2023-06-22T01:47:27;100449.31;;;23.74;32.97
64551;BME280;50945;44.472;-123.352;2023-06-22T01:49:55;100444.78;;;23.68;32.96
64551;BME280;50945;44.472;-123.352;2023-06-22T01:52:22;100451.47;;;23.62;32.95
64551;BME280;50945;44.472;-123.352;2023-06-22T01:54:48;100448.38;;;23.58;33.06
64551;BME280;50945;44.472;-123.352;2023-06-22T01:57:14;100441.06;;;23.47;32.24
64551;BME280;50945;44.472;-123.352;2023-06-22T02:02:11;100445.72;;;23.41;33.66
64551;BME280;50945;44.472;-123.352;2023-06-22T02:04:47;100444.28;;;23.33;33.67
64551;BME280;50945;44.472;-123.352;2023-06-22T02:07:15;100445.94;;;23.29;33.89
64551;BME280;50945;44.472;-123.352;2023-06-22T02:09:45;100443.66;;;23.21;33.92
64551;BME280;50945;44.472;-123.352;2023-06-22T02:12:12;100451.41;;;23.14;34.06
64551;BME280;50945;44.472;-123.352;2023-06-22T02:14:39;100448.56;;;23.09;33.99
64551;BME280;50945;44.472;-123.352;2023-06-22T02:17:08;100445.69;;;23.04;34.24
64551;BME280;50945;44.472;-123.352;2023-06-22T02:19:41;100439.50;;;22.96;34.27
64551;BME280;50945;44.472;-123.352;2023-06-22T02:22:07;100452.56;;;22.91;34.52
64551;BME280;50945;44.472;-123.352;2023-06-22T02:24:32;100447.75;;;22.81;33.77
64551;BME280;50945;44.472;-123.352;2023-06-22T02:27:00;100455.25;;;22.81;34.74
64551;BME280;50945;44.472;-123.352;2023-06-22T02:29:27;100452.72;;;22.79;34.94
64551;BME280;50945;44.472;-123.352;2023-06-22T02:31:54;100445.16;;;22.74;35.21
64551;BME280;50945;44.472;-123.352;2023-06-22T02:34:21;100449.56;;;22.70;35.29
64551;BME280;50945;44.472;-123.352;2023-06-22T02:36:49;100438.41;;;22.65;35.55
64551;BME280;50945;44.472;-123.352;2023-06-22T02:39:23;100445.25;;;22.57;35.63
64551;BME280;50945;44.472;-123.352;2023-06-22T02:41:51;100441.84;;;22.50;35.78
64551;BME280;50945;44.472;-123.352;2023-06-22T02:44:17;100445.44;;;22.46;35.93
64551;BME280;50945;44.472;-123.352;2023-06-22T02:46:44;100444.50;;;22.40;36.12
64551;BME280;50945;44.472;-123.352;2023-06-22T02:49:10;100447.25;;;22.35;36.08
64551;BME280;50945;44.472;-123.352;2023-06-22T02:51:38;100454.59;;;22.24;35.93
64551;BME280;50945;44.472;-123.352;2023-06-22T02:54:05;100451.78;;;22.19;36.49
64551;BME280;50945;44.472;-123.352;2023-06-22T02:56:32;100453.13;;;22.16;36.60
64551;BME280;50945;44.472;-123.352;2023-06-22T02:58:57;100445.19;;;22.03;36.50
64551;BME280;50945;44.472;-123.352;2023-06-22T03:01:27;100449.31;;;22.00;36.90
64551;BME280;50945;44.472;-123.352;2023-06-22T03:03:56;100453.47;;;21.98;36.97
64551;BME280;50945;44.472;-123.352;2023-06-22T03:06:23;100450.09;;;21.96;37.03
64551;BME280;50945;44.472;-123.352;2023-06-22T03:09:03;100450.84;;;21.91;37.12
64551;BME280;50945;44.472;-123.352;2023-06-22T03:11:31;100446.06;;;21.87;37.48
64551;BME280;50945;44.472;-123.352;2023-06-22T03:13:57;100446.25;;;21.80;37.60
64551;BME280;50945;44.472;-123.352;2023-06-22T03:16:24;100448.38;;;21.73;37.78
64551;BME280;50945;44.472;-123.352;2023-06-22T03:18:50;100442.94;;;21.61;38.14
64551;BME280;50945;44.472;-123.352;2023-06-22T03:21:16;100457.09;;;21.59;38.53
64551;BME280;50945;44.472;-123.352;2023-06-22T03:23:43;100446.31;;;21.46;38.54
64551;BME280;50945;44.472;-123.352;2023-06-22T03:26:09;100453.63;;;21.35;38.63
64551;BME280;50945;44.472;-123.352;2023-06-22T03:28:37;100460.47;;;21.27;38.75
64551;BME280;50945;44.472;-123.352;2023-06-22T03:31:03;100455.84;;;21.16;38.82
64551;BME280;50945;44.472;-123.352;2023-06-22T03:33:32;100454.81;;;21.05;39.31
64551;BME280;50945;44.472;-123.352;2023-06-22T03:35:58;100451.19;;;20.88;40.67
64551;BME280;50945;44.472;-123.352;2023-06-22T03:38:24;100461.38;;;20.82;39.64
64551;BME280;50945;44.472;-123.352;2023-06-22T03:40:50;100461.78;;;20.74;39.80
64551;BME280;50945;44.472;-123.352;2023-06-22T03:43:16;100449.88;;;20.62;39.88
64551;BME280;50945;44.472;-123.352;2023-06-22T03:45:42;100455.44;;;20.50;40.03
64551;BME280;50945;44.472;-123.352;2023-06-22T03:48:11;100452.50;;;20.40;40.52
64551;BME280;50945;44.472;-123.352;2023-06-22T03:50:38;100448.41;;;20.30;40.63
64551;BME280;50945;44.472;-123.352;2023-06-22T03:53:04;100448.22;;;20.20;40.85
64551;BME280;50945;44.472;-123.352;2023-06-22T03:55:30;100444.75;;;20.13;41.06
64551;BME280;50945;44.472;-123.352;2023-06-22T03:57:56;100453.19;;;20.06;40.85
64551;BME280;50945;44.472;-123.352;2023-06-22T04:00:23;100450.69;;;19.93;42.28
64551;BME280;50945;44.472;-123.352;2023-06-22T04:02:49;100453.09;;;19.89;41.20
64551;BME280;50945;44.472;-123.352;2023-06-22T04:05:15;100442.66;;;19.80;41.40
64551;BME280;50945;44.472;-123.352;2023-06-22T04:07:43;100453.22;;;19.71;41.65
64551;BME280;50945;44.472;-123.352;2023-06-22T04:10:10;100455.53;;;19.62;41.62
64551;BME280;50945;44.472;-123.352;2023-06-22T04:12:36;100449.28;;;19.55;41.80
64551;BME280;50945;44.472;-123.352;2023-06-22T04:15:02;100448.31;;;19.49;41.82
64551;BME280;50945;44.472;-123.352;2023-06-22T04:17:28;100453.97;;;19.43;42.14
64551;BME280;50945;44.472;-123.352;2023-06-22T04:19:55;100467.94;;;19.36;42.01
64551;BME280;50945;44.472;-123.352;2023-06-22T04:22:21;100459.50;;;19.31;42.17
64551;BME280;50945;44.472;-123.352;2023-06-22T04:24:47;100461.91;;;19.27;42.26
64551;BME280;50945;44.472;-123.352;2023-06-22T04:27:13;100465.19;;;19.24;42.23
64551;BME280;50945;44.472;-123.352;2023-06-22T04:29:39;100470.97;;;19.23;42.40
64551;BME280;50945;44.472;-123.352;2023-06-22T04:32:17;100467.81;;;19.19;42.57
64551;BME280;50945;44.472;-123.352;2023-06-22T04:34:44;100476.59;;;19.16;42.55
64551;BME280;50945;44.472;-123.352;2023-06-22T04:37:09;100469.72;;;19.07;43.85
64551;BME280;50945;44.472;-123.352;2023-06-22T04:39:42;100474.16;;;19.08;42.61
64551;BME280;50945;44.472;-123.352;2023-06-22T04:42:08;100466.34;;;19.05;42.67
64551;BME280;50945;44.472;-123.352;2023-06-22T04:44:35;100473.66;;;18.99;42.95
64551;BME280;50945;44.472;-123.352;2023-06-22T04:47:02;100472.56;;;18.88;43.26
64551;BME280;50945;44.472;-123.352;2023-06-22T04:49:34;100476.81;;;18.72;44.95
64551;BME280;50945;44.472;-123.352;2023-06-22T04:52:08;100473.31;;;18.65;43.43
64551;BME280;50945;44.472;-123.352;2023-06-22T04:54:36;100474.13;;;18.54;43.68
64551;BME280;50945;44.472;-123.352;2023-06-22T04:57:04;100483.22;;;18.42;43.92
64551;BME280;50945;44.472;-123.352;2023-06-22T04:59:31;100478.84;;;18.35;44.03
64551;BME280;50945;44.472;-123.352;2023-06-22T05:01:59;100475.91;;;18.30;44.25
64551;BME280;50945;44.472;-123.352;2023-06-22T05:04:29;100478.31;;;18.26;44.31
64551;BME280;50945;44.472;-123.352;2023-06-22T05:06:59;100475.16;;;18.22;44.41
64551;BME280;50945;44.472;-123.352;2023-06-22T05:09:29;100472.97;;;18.13;44.65
64551;BME280;50945;44.472;-123.352;2023-06-22T05:11:56;100480.13;;;18.02;44.89
64551;BME280;50945;44.472;-123.352;2023-06-22T05:14:22;100476.81;;;17.93;44.84
64551;BME280;50945;44.472;-123.352;2023-06-22T05:16:49;100478.81;;;17.86;45.00
64551;BME280;50945;44.472;-123.352;2023-06-22T05:19:17;100481.00;;;17.77;45.23
64551;BME280;50945;44.472;-123.352;2023-06-22T05:21:44;100482.53;;;17.73;45.31
64551;BME280;50945;44.472;-123.352;2023-06-22T05:24:10;100480.22;;;17.70;45.23
64551;BME280;50945;44.472;-123.352;2023-06-22T05:26:36;100481.06;;;17.71;45.43
64551;BME280;50945;44.472;-123.352;2023-06-22T05:29:03;100489.19;;;17.65;45.65
64551;BME280;50945;44.472;-123.352;2023-06-22T05:31:29;100479.72;;;17.55;47.82
64551;BME280;50945;44.472;-123.352;2023-06-22T05:33:56;100477.19;;;17.53;46.02
64551;BME280;50945;44.472;-123.352;2023-06-22T05:36:22;100479.13;;;17.53;46.15
64551;BME280;50945;44.472;-123.352;2023-06-22T05:38:52;100474.03;;;17.49;46.13
64551;BME280;50945;44.472;-123.352;2023-06-22T05:41:18;100474.53;;;17.46;46.20
64551;BME280;50945;44.472;-123.352;2023-06-22T05:43:45;100470.06;;;17.45;46.52
64551;BME280;50945;44.472;-123.352;2023-06-22T05:46:11;100465.84;;;17.43;46.78
64551;BME280;50945;44.472;-123.352;2023-06-22T05:48:37;100467.72;;;17.42;46.89
64551;BME280;50945;44.472;-123.352;2023-06-22T05:51:03;100465.84;;;17.43;46.93
64551;BME280;50945;44.472;-123.352;2023-06-22T05:53:29;100470.72;;;17.41;46.82
64551;BME280;50945;44.472;-123.352;2023-06-22T05:55:56;100466.97;;;17.35;47.25
64551;BME280;50945;44.472;-123.352;2023-06-22T05:58:22;100464.91;;;17.31;47.59
64551;BME280;50945;44.472;-123.352;2023-06-22T06:00:48;100462.56;;;17.27;47.53
64551;BME280;50945;44.472;-123.352;2023-06-22T06:03:14;100464.72;;;17.25;47.83
64551;BME280;50945;44.472;-123.352;2023-06-22T06:05:42;100462.41;;;17.22;47.72
64551;BME280;50945;44.472;-123.352;2023-06-22T06:08:10;100462.19;;;17.24;47.77
64551;BME280;50945;44.472;-123.352;2023-06-22T06:10:37;100455.81;;;17.23;47.98
64551;BME280;50945;44.472;-123.352;2023-06-22T06:13:03;100455.19;;;17.21;49.89
64551;BME280;50945;44.472;-123.352;2023-06-22T06:15:31;100446.66;;;17.23;47.95
64551;BME280;50945;44.472;-123.352;2023-06-22T06:17:57;100444.78;;;17.23;47.85
64551;BME280;50945;44.472;-123.352;2023-06-22T06:20:25;100450.28;;;17.23;48.11
64551;BME280;50945;44.472;-123.352;2023-06-22T06:22:51;100447.53;;;17.23;48.02
64551;BME280;50945;44.472;-123.352;2023-06-22T06:25:18;100451.34;;;17.22;48.02
64551;BME280;50945;44.472;-123.352;2023-06-22T06:27:46;100446.88;;;17.21;48.40
64551;BME280;50945;44.472;-123.352;2023-06-22T06:30:14;100446.28;;;17.19;48.90
64551;BME280;50945;44.472;-123.352;2023-06-22T06:32:41;100440.13;;;17.17;48.52
64551;BME280;50945;44.472;-123.352;2023-06-22T06:35:08;100442.72;;;17.12;49.16
64551;BME280;50945;44.472;-123.352;2023-06-22T06:37:42;100443.88;;;17.04;49.42
64551;BME280;50945;44.472;-123.352;2023-06-22T06:40:10;100438.78;;;17.01;49.30
64551;BME280;50945;44.472;-123.352;2023-06-22T06:42:38;100432.88;;;16.98;49.33
64551;BME280;50945;44.472;-123.352;2023-06-22T06:45:08;100436.06;;;16.95;49.39
64551;BME280;50945;44.472;-123.352;2023-06-22T06:47:34;100435.25;;;16.94;49.50
64551;BME280;50945;44.472;-123.352;2023-06-22T06:50:01;100430.16;;;16.91;49.82
64551;BME280;50945;44.472;-123.352;2023-06-22T06:52:27;100423.19;;;16.88;49.69
64551;BME280;50945;44.472;-123.352;2023-06-22T06:54:53;100420.03;;;16.85;50.19
64551;BME280;50945;44.472;-123.352;2023-06-22T06:57:19;100422.34;;;16.81;49.88
64551;BME280;50945;44.472;-123.352;2023-06-22T06:59:46;100420.88;;;16.79;50.31
64551;BME280;50945;44.472;-123.352;2023-06-22T07:02:12;100424.94;;;16.76;50.06
64551;BME280;50945;44.472;-123.352;2023-06-22T07:04:38;100418.81;;;16.74;50.50
64551;BME280;50945;44.472;-123.352;2023-06-22T07:07:05;100420.72;;;16.73;50.13
64551;BME280;50945;44.472;-123.352;2023-06-22T07:09:31;100419.25;;;16.71;50.41
64551;BME280;50945;44.472;-123.352;2023-06-22T07:11:57;100413.31;;;16.67;50.64
64551;BME280;50945;44.472;-123.352;2023-06-22T07:14:23;100412.31;;;16.62;50.96
64551;BME280;50945;44.472;-123.352;2023-06-22T07:16:49;100408.75;;;16.54;50.90
64551;BME280;50945;44.472;-123.352;2023-06-22T07:19:16;100399.06;;;16.45;51.10
64551;BME280;50945;44.472;-123.352;2023-06-22T07:21:42;100403.38;;;16.34;51.65
64551;BME280;50945;44.472;-123.352;2023-06-22T07:24:08;100402.56;;;16.27;51.56
64551;BME280;50945;44.472;-123.352;2023-06-22T07:26:34;100396.47;;;16.19;51.49
64551;BME280;50945;44.472;-123.352;2023-06-22T07:29:01;100391.81;;;16.12;52.27
64551;BME280;50945;44.472;-123.352;2023-06-22T07:31:27;100391.41;;;16.09;52.07
64551;BME280;50945;44.472;-123.352;2023-06-22T07:33:53;100391.84;;;16.06;51.88
64551;BME280;50945;44.472;-123.352;2023-06-22T07:36:19;100393.78;;;16.05;52.38
64551;BME280;50945;44.472;-123.352;2023-06-22T07:38:45;100401.19;;;16.05;52.28
64551;BME280;50945;44.472;-123.352;2023-06-22T07:41:11;100393.16;;;16.03;54.38
64551;BME280;50945;44.472;-123.352;2023-06-22T07:43:38;100390.38;;;16.03;52.28
64551;BME280;50945;44.472;-123.352;2023-06-22T07:46:04;100383.81;;;16.04;52.52
64551;BME280;50945;44.472;-123.352;2023-06-22T07:48:30;100392.72;;;16.06;52.07
64551;BME280;50945;44.472;-123.352;2023-06-22T07:50:56;100388.88;;;16.07;52.96
64551;BME280;50945;44.472;-123.352;2023-06-22T07:53:23;100386.75;;;16.09;52.53
64551;BME280;50945;44.472;-123.352;2023-06-22T07:55:49;100388.66;;;16.09;55.23
64551;BME280;50945;44.472;-123.352;2023-06-22T07:58:15;100400.31;;;16.11;52.54
64551;BME280;50945;44.472;-123.352;2023-06-22T08:00:44;100391.19;;;16.10;52.95
64551;BME280;50945;44.472;-123.352;2023-06-22T08:03:10;100393.97;;;16.10;53.01
64551;BME280;50945;44.472;-123.352;2023-06-22T08:05:36;100393.13;;;16.10;52.48
64551;BME280;50945;44.472;-123.352;2023-06-22T08:08:03;100383.81;;;16.04;53.13
64551;BME280;50945;44.472;-123.352;2023-06-22T08:10:29;100387.44;;;15.98;53.00
64551;BME280;50945;44.472;-123.352;2023-06-22T08:12:55;100388.56;;;15.90;53.23
64551;BME280;50945;44.472;-123.352;2023-06-22T08:15:21;100378.38;;;15.84;53.51
64551;BME280;50945;44.472;-123.352;2023-06-22T08:17:47;100375.22;;;15.81;53.78
64551;BME280;50945;44.472;-123.352;2023-06-22T08:20:13;100378.66;;;15.76;53.90
64551;BME280;50945;44.472;-123.352;2023-06-22T08:22:40;100375.66;;;15.71;53.63
64551;BME280;50945;44.472;-123.352;2023-06-22T08:25:08;100371.63;;;15.67;54.10
64551;BME280;50945;44.472;-123.352;2023-06-22T08:27:34;100377.81;;;15.62;54.31
64551;BME280;50945;44.472;-123.352;2023-06-22T08:30:00;100377.22;;;15.53;58.72
64551;BME280;50945;44.472;-123.352;2023-06-22T08:32:30;100374.91;;;15.44;54.78
64551;BME280;50945;44.472;-123.352;2023-06-22T08:34:58;100375.78;;;15.37;54.41
64551;BME280;50945;44.472;-123.352;2023-06-22T08:37:24;100375.97;;;15.36;55.07
64551;BME280;50945;44.472;-123.352;2023-06-22T08:40:00;100361.81;;;15.32;55.12
64551;BME280;50945;44.472;-123.352;2023-06-22T08:42:34;100362.22;;;15.29;55.33
64551;BME280;50945;44.472;-123.352;2023-06-22T08:45:00;100360.34;;;15.30;55.17
64551;BME280;50945;44.472;-123.352;2023-06-22T08:47:29;100363.94;;;15.30;55.08
64551;BME280;50945;44.472;-123.352;2023-06-22T08:49:55;100357.59;;;15.30;55.14
64551;BME280;50945;44.472;-123.352;2023-06-22T08:52:22;100365.84;;;15.30;55.67
64551;BME280;50945;44.472;-123.352;2023-06-22T08:54:49;100358.41;;;15.30;55.52
64551;BME280;50945;44.472;-123.352;2023-06-22T08:57:15;100360.97;;;15.32;55.34
64551;BME280;50945;44.472;-123.352;2023-06-22T08:59:43;100366.69;;;15.30;55.63
64551;BME280;50945;44.472;-123.352;2023-06-22T09:02:09;100357.59;;;15.30;55.81
64551;BME280;50945;44.472;-123.352;2023-06-22T09:04:36;100363.09;;;15.30;55.94
64551;BME280;50945;44.472;-123.352;2023-06-22T09:07:02;100357.78;;;15.28;56.15
64551;BME280;50945;44.472;-123.352;2023-06-22T09:09:29;100358.00;;;15.27;55.65
64551;BME280;50945;44.472;-123.352;2023-06-22T09:11:55;100359.94;;;15.26;56.12
64551;BME280;50945;44.472;-123.352;2023-06-22T09:14:21;100350.78;;;15.26;56.27
64551;BME280;50945;44.472;-123.352;2023-06-22T09:16:47;100350.38;;;15.29;56.27
64551;BME280;50945;44.472;-123.352;2023-06-22T09:19:14;100353.75;;;15.31;55.61
64551;BME280;50945;44.472;-123.352;2023-06-22T09:21:40;100353.34;;;15.27;56.48
64551;BME280;50945;44.472;-123.352;2023-06-22T09:24:06;100343.41;;;15.26;56.29
64551;BME280;50945;44.472;-123.352;2023-06-22T09:26:32;100341.91;;;15.24;56.14
64551;BME280;50945;44.472;-123.352;2023-06-22T09:28:58;100345.50;;;15.24;56.38
64551;BME280;50945;44.472;-123.352;2023-06-22T09:31:24;100346.56;;;15.23;56.89
64551;BME280;50945;44.472;-123.352;2023-06-22T09:33:55;100342.34;;;15.20;56.52
64551;BME280;50945;44.472;-123.352;2023-06-22T09:36:21;100350.84;;;15.19;56.51
64551;BME280;50945;44.472;-123.352;2023-06-22T09:38:48;100352.31;;;15.15;57.17
64551;BME280;50945;44.472;-123.352;2023-06-22T09:41:14;100347.00;;;15.13;56.57
64551;BME280;50945;44.472;-123.352;2023-06-22T09:43:41;100346.38;;;15.11;56.84
64551;BME280;50945;44.472;-123.352;2023-06-22T09:46:07;100344.91;;;15.09;57.61
64551;BME280;50945;44.472;-123.352;2023-06-22T09:48:35;100342.38;;;15.07;57.36
64551;BME280;50945;44.472;-123.352;2023-06-22T09:51:01;100342.78;;;15.04;57.38
64551;BME280;50945;44.472;-123.352;2023-06-22T09:53:27;100343.63;;;15.05;57.03
64551;BME280;50945;44.472;-123.352;2023-06-22T09:55:54;100339.41;;;15.02;57.67
64551;BME280;50945;44.472;-123.352;2023-06-22T09:58:20;100340.72;;;14.99;57.21
64551;BME280;50945;44.472;-123.352;2023-06-22T10:00:46;100336.47;;;14.97;57.69
64551;BME280;50945;44.472;-123.352;2023-06-22T10:03:12;100327.56;;;14.95;57.23
64551;BME280;50945;44.472;-123.352;2023-06-22T10:05:38;100340.50;;;14.94;57.54
64551;BME280;50945;44.472;-123.352;2023-06-22T10:08:04;100330.31;;;14.88;57.96
64551;BME280;50945;44.472;-123.352;2023-06-22T10:10:33;100328.00;;;14.85;57.99
64551;BME280;50945;44.472;-123.352;2023-06-22T10:13:08;100320.81;;;14.84;58.43
64551;BME280;50945;44.472;-123.352;2023-06-22T10:15:38;100321.25;;;14.81;58.06
64551;BME280;50945;44.472;-123.352;2023-06-22T10:18:04;100320.59;;;14.79;58.13
64551;BME280;50945;44.472;-123.352;2023-06-22T10:20:30;100319.34;;;14.75;58.21
64551;BME280;50945;44.472;-123.352;2023-06-22T10:22:57;100321.91;;;14.70;58.25
64551;BME280;50945;44.472;-123.352;2023-06-22T10:25:23;100316.81;;;14.67;58.45
64551;BME280;50945;44.472;-123.352;2023-06-22T10:27:50;100314.47;;;14.63;58.34
64551;BME280;50945;44.472;-123.352;2023-06-22T10:30:16;100317.44;;;14.62;58.76
64551;BME280;50945;44.472;-123.352;2023-06-22T10:32:42;100318.72;;;14.59;58.67
64551;BME280;50945;44.472;-123.352;2023-06-22T10:35:09;100316.19;;;14.58;58.37
64551;BME280;50945;44.472;-123.352;2023-06-22T10:37:39;100310.00;;;14.56;58.56
64551;BME280;50945;44.472;-123.352;2023-06-22T10:40:05;100312.75;;;14.56;58.85
64551;BME280;50945;44.472;-123.352;2023-06-22T10:42:33;100308.31;;;14.55;58.89
64551;BME280;50945;44.472;-123.352;2023-06-22T10:44:59;100311.06;;;14.55;58.85
64551;BME280;50945;44.472;-123.352;2023-06-22T10:47:25;100308.75;;;14.52;59.07
64551;BME280;50945;44.472;-123.352;2023-06-22T10:49:51;100302.63;;;14.50;58.77
64551;BME280;50945;44.472;-123.352;2023-06-22T10:52:18;100298.16;;;14.49;59.07
64551;BME280;50945;44.472;-123.352;2023-06-22T10:54:44;100302.84;;;14.48;59.12
64551;BME280;50945;44.472;-123.352;2023-06-22T10:57:10;100302.41;;;14.44;59.28
64551;BME280;50945;44.472;-123.352;2023-06-22T10:59:36;100300.91;;;14.42;59.44
64551;BME280;50945;44.472;-123.352;2023-06-22T11:02:02;100296.91;;;14.38;59.46
64551;BME280;50945;44.472;-123.352;2023-06-22T11:04:28;100293.53;;;14.36;59.62
64551;BME280;50945;44.472;-123.352;2023-06-22T11:06:54;100289.72;;;14.30;59.77
64551;BME280;50945;44.472;-123.352;2023-06-22T11:09:22;100286.97;;;14.23;59.56
64551;BME280;50945;44.472;-123.352;2023-06-22T11:11:51;100282.28;;;14.17;60.15
64551;BME280;50945;44.472;-123.352;2023-06-22T11:14:20;100278.28;;;14.13;60.19
64551;BME280;50945;44.472;-123.352;2023-06-22T11:16:47;100278.47;;;14.12;60.21
64551;BME280;50945;44.472;-123.352;2023-06-22T11:19:13;100274.06;;;14.11;59.84
64551;BME280;50945;44.472;-123.352;2023-06-22T11:21:40;100275.31;;;14.08;60.08
64551;BME280;50945;44.472;-123.352;2023-06-22T11:24:06;100272.34;;;14.03;65.73
64551;BME280;50945;44.472;-123.352;2023-06-22T11:26:33;100267.69;;;13.97;60.32
64551;BME280;50945;44.472;-123.352;2023-06-22T11:28:59;100261.13;;;13.91;60.36
64551;BME280;50945;44.472;-123.352;2023-06-22T11:31:25;100267.88;;;13.88;60.47
64551;BME280;50945;44.472;-123.352;2023-06-22T11:33:51;100270.84;;;13.87;60.59
64551;BME280;50945;44.472;-123.352;2023-06-22T11:36:19;100258.16;;;13.86;60.67
64551;BME280;50945;44.472;-123.352;2023-06-22T11:38:45;100264.69;;;13.85;60.62
64551;BME280;50945;44.472;-123.352;2023-06-22T11:41:12;100266.63;;;13.84;60.70
64551;BME280;50945;44.472;-123.352;2023-06-22T11:43:38;100263.66;;;13.86;60.98
64551;BME280;50945;44.472;-123.352;2023-06-22T11:46:04;100267.66;;;13.83;61.13
64551;BME280;50945;44.472;-123.352;2023-06-22T11:48:30;100261.72;;;13.80;65.71
64551;BME280;50945;44.472;-123.352;2023-06-22T11:50:57;100265.13;;;13.75;60.81
64551;BME280;50945;44.472;-123.352;2023-06-22T11:53:25;100262.56;;;13.74;61.17
64551;BME280;50945;44.472;-123.352;2023-06-22T11:55:52;100267.44;;;13.72;61.28
64551;BME280;50945;44.472;-123.352;2023-06-22T11:58:19;100261.28;;;13.69;61.25
64551;BME280;50945;44.472;-123.352;2023-06-22T12:00:45;100255.16;;;13.67;61.39
64551;BME280;50945;44.472;-123.352;2023-06-22T12:03:12;100269.09;;;13.66;61.25
64551;BME280;50945;44.472;-123.352;2023-06-22T12:05:38;100258.75;;;13.68;61.47
64551;BME280;50945;44.472;-123.352;2023-06-22T12:08:04;100263.41;;;13.61;61.26
64551;BME280;50945;44.472;-123.352;2023-06-22T12:10:31;100252.78;;;13.51;61.48
64551;BME280;50945;44.472;-123.352;2023-06-22T12:12:57;100256.56;;;13.43;62.18
64551;BME280;50945;44.472;-123.352;2023-06-22T12:15:25;100261.19;;;13.36;62.39
64551;BME280;50945;44.472;-123.352;2023-06-22T12:17:52;100252.25;;;13.27;62.32
64551;BME280;50945;44.472;-123.352;2023-06-22T12:20:18;100257.50;;;13.22;68.47
64551;BME280;50945;44.472;-123.352;2023-06-22T12:22:45;100251.38;;;13.20;62.45
64551;BME280;50945;44.472;-123.352;2023-06-22T12:25:11;100248.66;;;13.20;62.28
64551;BME280;50945;44.472;-123.352;2023-06-22T12:27:38;100262.38;;;13.20;62.45